createdAt,value
2023-05-19T00:00:40.082Z,11.62
2023-05-19T00:03:09.297Z,11.72
2023-05-19T00:05:46.385Z,11.82
2023-05-19T00:08:17.636Z,11.76
2023-05-19T00:10:46.397Z,11.79
2023-05-19T00:13:13.946Z,11.89
2023-05-19T00:15:42.416Z,11.73
2023-05-19T00:18:14.282Z,11.54
2023-05-19T00:20:43.299Z,11.55
2023-05-19T00:23:11.778Z,11.59
2023-05-19T00:25:39.074Z,11.53
2023-05-19T00:28:06.468Z,11.58
2023-05-19T00:30:33.987Z,11.58
2023-05-19T00:33:02.357Z,11.71
2023-05-19T00:35:30.609Z,11.71
2023-05-19T00:37:58.007Z,11.56
2023-05-19T00:40:27.522Z,11.38
2023-05-19T00:42:54.804Z,11.50
2023-05-19T00:45:23.214Z,11.51
2023-05-19T00:47:50.586Z,11.71
2023-05-19T00:50:17.975Z,11.78
2023-05-19T00:52:45.381Z,11.80
2023-05-19T00:55:14.240Z,11.64
2023-05-19T00:57:43.716Z,11.69
2023-05-19T01:00:12.850Z,11.54
2023-05-19T01:02:41.758Z,11.58
2023-05-19T01:05:10.648Z,11.52
2023-05-19T01:07:41.960Z,11.62
2023-05-19T01:10:10.293Z,11.59
2023-05-19T01:12:39.901Z,11.52
2023-05-19T01:15:10.155Z,11.55
2023-05-19T01:18:03.711Z,11.60
2023-05-19T01:20:48.398Z,11.54
2023-05-19T01:24:09.309Z,11.27
2023-05-19T01:27:07.816Z,11.32
2023-05-19T01:30:25.543Z,11.36
2023-05-19T01:32:59.827Z,11.44
2023-05-19T01:35:29.340Z,11.33
2023-05-19T01:37:59.709Z,11.41
2023-05-19T01:40:29.554Z,11.34
2023-05-19T01:43:00.306Z,11.23
2023-05-19T01:45:34.428Z,11.26
2023-05-19T01:48:06.030Z,11.14
2023-05-19T01:50:35.511Z,11.14
2023-05-19T01:53:02.881Z,11.06
2023-05-19T01:55:31.027Z,11.07
2023-05-19T01:58:11.614Z,11.17
2023-05-19T02:01:08.961Z,11.06
2023-05-19T02:03:57.347Z,11.11
2023-05-19T02:06:28.408Z,11.08
2023-05-19T02:09:16.551Z,11.07
2023-05-19T02:12:11.682Z,11.07
2023-05-19T02:15:14.596Z,10.97
2023-05-19T02:17:48.643Z,11.10
2023-05-19T02:20:17.605Z,11.07
2023-05-19T02:22:46.296Z,11.20
2023-05-19T02:25:14.795Z,11.27
2023-05-19T02:27:42.726Z,11.26
2023-05-19T02:30:11.412Z,11.09
2023-05-19T02:32:38.742Z,11.21
2023-05-19T02:35:07.253Z,11.19
2023-05-19T02:37:35.600Z,11.05
2023-05-19T02:40:02.913Z,11.11
2023-05-19T02:42:31.593Z,11.06
2023-05-19T02:45:00.899Z,11.22
2023-05-19T02:47:28.330Z,11.05
2023-05-19T02:49:55.896Z,11.18
2023-05-19T02:52:23.218Z,11.07
2023-05-19T02:54:50.659Z,11.11
2023-05-19T02:57:17.974Z,11.15
2023-05-19T02:59:46.194Z,11.19
2023-05-19T03:02:14.517Z,11.12
2023-05-19T03:04:43.060Z,11.13
2023-05-19T03:07:11.281Z,11.00
2023-05-19T03:09:40.398Z,11.07
2023-05-19T03:12:08.712Z,10.86
2023-05-19T03:14:41.359Z,10.96
2023-05-19T03:17:10.915Z,11.07
2023-05-19T03:19:39.179Z,11.04
2023-05-19T03:22:07.562Z,10.88
2023-05-19T03:24:37.013Z,10.81
2023-05-19T03:27:08.442Z,11.08
2023-05-19T03:29:37.138Z,11.15
2023-05-19T03:32:05.773Z,11.12
2023-05-19T03:34:34.163Z,10.98
2023-05-19T03:37:02.432Z,11.10
2023-05-19T03:39:29.803Z,11.26
2023-05-19T03:41:58.264Z,11.16
2023-05-19T03:44:26.555Z,11.11
2023-05-19T03:46:54.785Z,11.13
2023-05-19T03:49:22.993Z,11.18
2023-05-19T03:51:51.328Z,11.23
2023-05-19T03:54:21.278Z,11.29
2023-05-19T03:56:49.525Z,11.30
2023-05-19T03:59:16.853Z,11.39
2023-05-19T04:01:45.073Z,11.27
2023-05-19T04:04:12.524Z,11.51
2023-05-19T04:06:40.729Z,11.78
2023-05-19T04:09:15.670Z,11.75
2023-05-19T04:11:43.841Z,11.48
2023-05-19T04:14:12.025Z,11.44
2023-05-19T04:16:41.926Z,11.54
2023-05-19T04:19:10.141Z,11.72
2023-05-19T04:21:38.360Z,11.79
2023-05-19T04:24:06.734Z,11.72
2023-05-19T04:26:34.702Z,11.75
2023-05-19T04:29:04.950Z,11.88
2023-05-19T04:31:35.512Z,11.83
2023-05-19T04:34:02.858Z,12.10
2023-05-19T04:36:30.134Z,12.12
2023-05-19T04:39:02.610Z,12.73
2023-05-19T04:41:31.746Z,12.91
2023-05-19T04:43:59.059Z,12.81
2023-05-19T04:46:27.579Z,12.54
2023-05-19T04:48:57.342Z,12.61
2023-05-19T04:51:31.641Z,12.60
2023-05-19T04:53:58.984Z,12.73
2023-05-19T04:56:27.616Z,13.07
2023-05-19T04:58:56.759Z,13.81
2023-05-19T05:01:26.458Z,13.44
2023-05-19T05:03:59.048Z,13.69
2023-05-19T05:06:28.809Z,13.64
2023-05-19T05:08:57.198Z,13.62
2023-05-19T05:11:25.961Z,14.25
2023-05-19T05:13:53.639Z,15.25
2023-05-19T05:16:23.067Z,14.36
2023-05-19T05:18:51.675Z,14.23
2023-05-19T05:21:20.189Z,14.14
2023-05-19T05:23:47.887Z,14.43
2023-05-19T05:26:19.964Z,14.08
2023-05-19T05:28:48.156Z,14.08
2023-05-19T05:31:17.262Z,14.12
2023-05-19T05:33:45.872Z,14.07
2023-05-19T05:36:13.937Z,14.03
2023-05-19T05:38:42.068Z,13.92
2023-05-19T05:41:09.392Z,13.94
2023-05-19T05:43:36.753Z,13.97
2023-05-19T05:46:04.200Z,14.07
2023-05-19T05:48:32.685Z,13.68
2023-05-19T05:51:00.035Z,13.79
2023-05-19T05:53:32.373Z,14.00
2023-05-19T05:56:00.016Z,14.31
2023-05-19T05:58:29.122Z,14.19
2023-05-19T06:00:58.691Z,14.37
2023-05-19T06:03:29.556Z,14.41
2023-05-19T06:05:56.942Z,14.52
2023-05-19T06:08:24.272Z,14.91
2023-05-19T06:10:52.346Z,14.65
2023-05-19T06:13:24.236Z,14.96
2023-05-19T06:15:52.046Z,15.29
2023-05-19T06:18:20.220Z,15.40
2023-05-19T06:20:48.339Z,15.17
2023-05-19T06:23:16.496Z,15.72
2023-05-19T06:25:44.607Z,15.70
2023-05-19T06:28:12.807Z,15.92
2023-05-19T06:30:40.212Z,15.92
2023-05-19T06:33:07.587Z,16.10
2023-05-19T06:35:34.910Z,16.55
2023-05-19T06:38:02.257Z,16.48
2023-05-19T06:40:29.705Z,17.11
2023-05-19T06:42:57.780Z,17.41
2023-05-19T06:45:25.072Z,18.08
2023-05-19T06:47:54.344Z,18.15
2023-05-19T06:50:22.543Z,17.95
2023-05-19T06:52:49.932Z,18.59
2023-05-19T06:55:17.960Z,18.79
2023-05-19T06:57:46.254Z,18.69
2023-05-19T07:00:17.946Z,18.90
2023-05-19T07:02:47.539Z,19.46
2023-05-19T07:05:16.297Z,20.12
2023-05-19T07:07:44.685Z,20.01
2023-05-19T07:10:12.748Z,19.86
2023-05-19T07:12:40.910Z,19.93
2023-05-19T07:15:09.426Z,20.09
2023-05-19T07:17:37.438Z,20.43
2023-05-19T07:20:10.348Z,20.58
2023-05-19T07:22:40.158Z,21.12
2023-05-19T07:25:09.217Z,20.73
2023-05-19T07:27:37.292Z,20.77
2023-05-19T07:30:06.030Z,20.20
2023-05-19T07:32:34.212Z,20.57
2023-05-19T07:35:02.497Z,20.43
2023-05-19T07:37:30.723Z,19.76
2023-05-19T07:39:58.835Z,20.39
2023-05-19T07:42:26.965Z,19.81
2023-05-19T07:44:55.132Z,19.44
2023-05-19T07:47:23.201Z,19.07
2023-05-19T07:49:52.166Z,19.15
2023-05-19T07:52:20.184Z,19.19
2023-05-19T07:54:48.327Z,19.26
2023-05-19T07:57:16.915Z,19.91
2023-05-19T07:59:45.351Z,20.61
2023-05-19T08:02:13.379Z,20.01
2023-05-19T08:04:41.617Z,19.93
2023-05-19T08:07:09.665Z,19.79
2023-05-19T08:09:37.668Z,20.75
2023-05-19T08:12:06.112Z,19.96
2023-05-19T08:14:35.129Z,19.41
2023-05-19T08:17:03.139Z,19.55
2023-05-19T08:19:31.428Z,20.02
2023-05-19T08:22:01.451Z,20.55
2023-05-19T08:24:34.082Z,20.99
2023-05-19T08:27:05.399Z,22.34
2023-05-19T08:29:33.413Z,21.77
2023-05-19T08:32:02.709Z,20.97
2023-05-19T08:34:31.266Z,21.52
2023-05-19T08:37:00.014Z,22.10
2023-05-19T08:39:28.485Z,22.31
2023-05-19T08:41:56.921Z,21.79
2023-05-19T08:44:24.994Z,22.25
2023-05-19T08:46:56.541Z,21.58
2023-05-19T08:49:31.004Z,21.94
2023-05-19T08:52:06.601Z,20.69
2023-05-19T08:54:46.393Z,20.83
2023-05-19T08:57:15.759Z,21.20
2023-05-19T08:59:44.547Z,21.10
2023-05-19T09:02:14.770Z,21.29
2023-05-19T09:04:46.367Z,21.87
2023-05-19T09:07:15.895Z,22.26
2023-05-19T09:09:44.247Z,22.50
2023-05-19T09:12:13.844Z,21.79
2023-05-19T09:14:42.712Z,21.60
2023-05-19T09:17:11.095Z,21.39
2023-05-19T09:19:44.708Z,20.07
2023-05-19T09:22:16.624Z,20.45
2023-05-19T09:24:45.204Z,21.72
2023-05-19T09:27:17.332Z,21.35
2023-05-19T09:29:45.370Z,21.67
2023-05-19T09:32:13.458Z,21.65
2023-05-19T09:34:42.390Z,21.67
2023-05-19T09:37:13.654Z,21.52
2023-05-19T09:39:41.719Z,21.30
2023-05-19T09:42:09.857Z,21.19
2023-05-19T09:44:37.994Z,21.13
2023-05-19T09:47:06.122Z,21.05
2023-05-19T09:49:34.145Z,21.22
2023-05-19T09:52:06.072Z,21.78
2023-05-19T09:54:34.690Z,21.65
2023-05-19T09:57:07.704Z,20.89
2023-05-19T09:59:39.245Z,20.46
2023-05-19T10:02:18.450Z,21.44
2023-05-19T10:04:48.692Z,20.98
2023-05-19T10:07:17.955Z,21.74
2023-05-19T10:09:46.726Z,22.42
2023-05-19T10:12:15.392Z,22.78
2023-05-19T10:14:43.408Z,23.23
2023-05-19T10:17:12.801Z,23.07
2023-05-19T10:19:41.839Z,22.26
2023-05-19T10:22:09.846Z,22.57
2023-05-19T10:24:38.006Z,23.23
2023-05-19T10:27:12.234Z,23.33
2023-05-19T10:29:44.410Z,23.52
2023-05-19T10:32:17.917Z,23.37
2023-05-19T10:35:32.687Z,22.88
2023-05-19T10:38:20.948Z,23.61
2023-05-19T10:41:14.489Z,22.97
2023-05-19T10:43:55.223Z,22.58
2023-05-19T10:46:28.751Z,22.66
2023-05-19T10:48:56.977Z,22.32
2023-05-19T10:51:34.689Z,23.12
2023-05-19T10:54:12.071Z,23.34
2023-05-19T10:56:47.443Z,23.18
2023-05-19T10:59:35.844Z,23.29
2023-05-19T11:02:08.887Z,23.14
2023-05-19T11:04:54.287Z,23.33
2023-05-19T11:07:24.998Z,23.14
2023-05-19T11:09:54.839Z,23.56
2023-05-19T11:12:25.245Z,23.32
2023-05-19T11:14:55.060Z,23.60
2023-05-19T11:17:25.950Z,23.42
2023-05-19T11:19:59.572Z,23.41
2023-05-19T11:22:28.856Z,23.65
2023-05-19T11:24:58.126Z,23.28
2023-05-19T11:27:38.490Z,23.36
2023-05-19T11:30:07.718Z,23.67
2023-05-19T11:32:39.678Z,23.60
2023-05-19T11:35:10.129Z,24.25
2023-05-19T11:37:40.574Z,24.31
2023-05-19T11:40:09.677Z,24.03
2023-05-19T11:42:37.895Z,23.84
2023-05-19T11:45:07.160Z,23.76
2023-05-19T11:47:47.107Z,23.92
2023-05-19T11:50:23.586Z,23.76
2023-05-19T11:52:52.959Z,24.03
2023-05-19T11:55:25.519Z,24.22
2023-05-19T12:00:37.786Z,23.08
2023-05-19T12:03:06.602Z,23.30
2023-05-19T12:05:41.882Z,23.73
2023-05-19T12:08:12.427Z,24.53
2023-05-19T12:10:41.857Z,24.28
2023-05-19T12:13:10.733Z,24.47
2023-05-19T12:15:39.394Z,24.48
2023-05-19T12:18:08.015Z,24.22
2023-05-19T12:20:36.406Z,24.23
2023-05-19T12:23:05.982Z,24.31
2023-05-19T12:25:34.474Z,23.97
2023-05-19T12:28:03.691Z,23.82
2023-05-19T12:30:33.440Z,24.04
2023-05-19T12:33:03.103Z,24.08
2023-05-19T12:35:36.484Z,23.92
2023-05-19T12:38:05.836Z,23.18
2023-05-19T12:40:42.491Z,24.21
2023-05-19T12:43:23.196Z,24.15
2023-05-19T12:45:51.569Z,23.91
2023-05-19T12:48:23.143Z,23.53
2023-05-19T12:50:55.916Z,23.96
2023-05-19T12:53:27.921Z,23.91
2023-05-19T12:55:56.308Z,23.41
2023-05-19T12:58:24.542Z,23.20
2023-05-19T13:01:00.667Z,22.84
2023-05-19T13:03:29.031Z,22.82
2023-05-19T13:05:59.820Z,22.98
2023-05-19T13:08:28.040Z,22.83
2023-05-19T13:10:56.386Z,22.80
2023-05-19T13:13:24.504Z,22.87
2023-05-19T13:15:52.679Z,23.04
2023-05-19T13:18:20.695Z,23.00
2023-05-19T13:20:53.187Z,23.19
2023-05-19T13:23:21.269Z,23.06
2023-05-19T13:25:50.978Z,23.14
2023-05-19T13:28:19.332Z,23.17
2023-05-19T13:30:47.491Z,23.29
2023-05-19T13:33:15.904Z,24.21
2023-05-19T13:35:43.992Z,24.48
2023-05-19T13:38:12.201Z,24.59
2023-05-19T13:40:40.640Z,24.74
2023-05-19T13:43:09.183Z,24.14
2023-05-19T13:45:37.664Z,24.22
2023-05-19T13:48:07.826Z,24.45
2023-05-19T13:50:36.046Z,24.51
2023-05-19T13:53:04.280Z,24.28
2023-05-19T13:55:33.358Z,24.30
2023-05-19T13:58:01.510Z,24.18
2023-05-19T14:00:32.029Z,23.91
2023-05-19T14:03:00.714Z,23.75
2023-05-19T14:05:29.285Z,23.93
2023-05-19T14:07:58.259Z,23.65
2023-05-19T14:10:26.544Z,23.55
2023-05-19T14:13:29.046Z,23.17
2023-05-19T14:15:42.712Z,23.22
2023-05-19T14:18:11.373Z,23.23
2023-05-19T14:20:39.451Z,23.09
2023-05-19T14:23:07.490Z,23.16
2023-05-19T14:25:35.611Z,23.35
2023-05-19T14:28:03.679Z,23.25
2023-05-19T14:30:31.934Z,23.16
2023-05-19T14:33:00.569Z,22.96
2023-05-19T14:35:29.061Z,23.20
2023-05-19T14:37:57.052Z,23.17
2023-05-19T14:40:25.071Z,23.33
2023-05-19T14:42:53.134Z,23.29
2023-05-19T14:45:21.344Z,23.21
2023-05-19T14:47:49.593Z,23.23
2023-05-19T14:50:17.746Z,22.84
2023-05-19T14:52:46.040Z,23.14
2023-05-19T14:55:14.293Z,23.06
2023-05-19T14:57:42.341Z,23.02
2023-05-19T15:00:10.977Z,23.18
2023-05-19T15:02:39.226Z,23.42
2023-05-19T15:05:07.693Z,23.65
2023-05-19T15:07:35.798Z,23.59
2023-05-19T15:10:04.936Z,23.66
2023-05-19T15:12:32.949Z,23.71
2023-05-19T15:15:01.253Z,23.95
2023-05-19T15:17:29.387Z,23.61
2023-05-19T15:19:57.445Z,23.32
2023-05-19T15:22:25.710Z,23.50
2023-05-19T15:24:53.765Z,23.31
2023-05-19T15:27:21.836Z,23.26
2023-05-19T15:29:49.889Z,23.21
2023-05-19T15:32:17.923Z,23.14
2023-05-19T15:34:46.089Z,23.05
2023-05-19T15:37:14.088Z,23.16
2023-05-19T15:39:42.244Z,23.06
2023-05-19T15:42:10.233Z,23.12
2023-05-19T15:44:38.879Z,23.09
2023-05-19T15:47:07.071Z,22.97
2023-05-19T15:49:36.841Z,22.94
2023-05-19T15:52:05.104Z,22.83
2023-05-19T15:54:33.102Z,22.51
2023-05-19T15:57:01.239Z,22.55
2023-05-19T15:59:30.348Z,22.32
2023-05-19T16:01:58.580Z,22.38
2023-05-19T16:04:26.790Z,22.54
2023-05-19T16:06:54.916Z,22.61
2023-05-19T16:09:22.916Z,22.73
2023-05-19T16:11:51.512Z,22.69
2023-05-19T16:14:19.582Z,22.37
2023-05-19T16:16:47.760Z,22.07
2023-05-19T16:19:16.074Z,22.04
2023-05-19T16:21:44.621Z,22.18
2023-05-19T16:24:12.697Z,22.16
2023-05-19T16:26:41.007Z,22.29
2023-05-19T16:29:09.170Z,22.37
2023-05-19T16:31:37.392Z,22.28
2023-05-19T16:34:05.571Z,22.39
2023-05-19T16:36:33.677Z,22.47
2023-05-19T16:39:01.870Z,22.43
2023-05-19T16:41:30.031Z,22.60
2023-05-19T16:43:58.273Z,22.22
2023-05-19T16:46:27.342Z,22.16
2023-05-19T16:48:56.615Z,22.21
2023-05-19T16:51:24.854Z,22.27
2023-05-19T16:53:52.970Z,22.05
2023-05-19T16:56:22.040Z,21.91
2023-05-19T16:58:50.149Z,21.77
2023-05-19T17:01:18.162Z,22.21
2023-05-19T17:03:46.180Z,22.09
2023-05-19T17:06:14.342Z,21.92
2023-05-19T17:08:42.548Z,21.98
2023-05-19T17:11:10.798Z,21.88
2023-05-19T17:13:39.546Z,21.55
2023-05-19T17:16:07.717Z,21.43
2023-05-19T17:18:36.052Z,21.19
2023-05-19T17:21:05.551Z,21.02
2023-05-19T17:23:33.827Z,21.02
2023-05-19T17:26:02.126Z,20.77
2023-05-19T17:28:29.421Z,20.64
2023-05-19T17:31:01.694Z,20.56
2023-05-19T17:33:30.534Z,20.32
2023-05-19T17:35:58.773Z,20.26
2023-05-19T17:38:27.797Z,19.98
2023-05-19T17:41:04.777Z,19.67
2023-05-19T17:43:33.103Z,19.66
2023-05-19T17:46:01.447Z,19.77
2023-05-19T17:48:30.077Z,19.60
2023-05-19T17:50:59.000Z,19.53
2023-05-19T17:53:27.541Z,19.49
2023-05-19T17:56:01.541Z,19.61
2023-05-19T17:58:30.120Z,19.37
2023-05-19T18:00:58.598Z,19.56
2023-05-19T18:03:27.318Z,19.25
2023-05-19T18:05:56.081Z,19.06
2023-05-19T18:08:24.759Z,19.27
2023-05-19T18:10:55.188Z,19.23
2023-05-19T18:13:24.346Z,18.89
2023-05-19T18:15:53.170Z,18.55
2023-05-19T18:18:21.954Z,18.35
2023-05-19T18:20:51.448Z,18.53
2023-05-19T18:23:20.470Z,18.33
2023-05-19T18:25:51.580Z,18.49
2023-05-19T18:28:20.772Z,18.19
2023-05-19T18:31:04.887Z,18.15
2023-05-19T18:33:33.795Z,18.18
2023-05-19T18:36:02.254Z,17.94
2023-05-19T18:38:30.535Z,18.06
2023-05-19T18:41:00.927Z,18.05
2023-05-19T18:43:30.389Z,17.82
2023-05-19T18:45:59.505Z,17.81
2023-05-19T18:48:28.271Z,17.60
2023-05-19T18:50:57.434Z,17.77
2023-05-19T18:53:25.918Z,17.75
2023-05-19T18:55:54.109Z,17.69
2023-05-19T18:58:22.348Z,17.61
2023-05-19T19:00:50.754Z,17.51
2023-05-19T19:03:19.045Z,17.60
2023-05-19T19:05:55.450Z,17.63
2023-05-19T19:08:23.782Z,17.66
2023-05-19T19:10:52.351Z,17.78
2023-05-19T19:13:21.127Z,17.86
2023-05-19T19:15:50.102Z,17.70
2023-05-19T19:18:18.312Z,17.60
2023-05-19T19:20:46.608Z,17.65
2023-05-19T19:23:18.223Z,17.44
2023-05-19T19:25:47.476Z,17.30
2023-05-19T19:28:15.846Z,17.32
2023-05-19T19:30:46.432Z,17.33
2023-05-19T19:33:14.661Z,17.40
2023-05-19T19:35:47.140Z,17.40
2023-05-19T19:38:15.365Z,17.46
2023-05-19T19:40:44.366Z,17.45
2023-05-19T19:43:12.582Z,17.39
2023-05-19T19:45:41.926Z,17.38
2023-05-19T19:48:10.281Z,17.36
2023-05-19T19:50:38.552Z,17.38
2023-05-19T19:53:08.969Z,17.38
2023-05-19T19:55:37.988Z,17.44
2023-05-19T19:58:06.252Z,17.44
2023-05-19T20:00:34.800Z,17.39
2023-05-19T20:03:05.529Z,17.36
2023-05-19T20:05:34.179Z,17.20
2023-05-19T20:08:03.241Z,17.35
2023-05-19T20:10:32.410Z,17.21
2023-05-19T20:13:00.892Z,17.16
2023-05-19T20:15:29.917Z,17.08
2023-05-19T20:17:58.103Z,17.10
2023-05-19T20:20:26.442Z,17.19
2023-05-19T20:22:54.642Z,17.18
2023-05-19T20:25:23.710Z,17.12
2023-05-19T20:27:52.130Z,17.01
2023-05-19T20:30:21.216Z,17.12
2023-05-19T20:32:49.503Z,17.07
2023-05-19T20:35:17.742Z,17.25
2023-05-19T20:37:46.006Z,17.06
2023-05-19T20:40:14.382Z,17.11
2023-05-19T20:42:42.652Z,17.09
2023-05-19T20:45:11.796Z,17.05
2023-05-19T20:47:40.008Z,17.09
2023-05-19T20:50:08.786Z,17.07
2023-05-19T20:52:36.983Z,17.01
2023-05-19T20:55:06.308Z,17.00
2023-05-19T20:57:34.837Z,16.96
2023-05-19T21:00:03.657Z,16.97
2023-05-19T21:02:31.864Z,16.94
2023-05-19T21:05:00.130Z,16.79
2023-05-19T21:07:28.371Z,16.78
2023-05-19T21:09:57.900Z,16.73
2023-05-19T21:12:28.870Z,16.61
2023-05-19T21:14:57.898Z,16.55
2023-05-19T21:17:26.186Z,16.45
2023-05-19T21:19:58.194Z,16.41
2023-05-19T21:22:27.718Z,16.48
2023-05-19T21:24:57.241Z,16.45
2023-05-19T21:27:25.738Z,16.33
2023-05-19T21:29:54.502Z,16.30
2023-05-19T21:32:22.717Z,16.25
2023-05-19T21:34:50.222Z,16.32
2023-05-19T21:37:18.486Z,16.15
2023-05-19T21:39:46.788Z,16.21
2023-05-19T21:42:14.968Z,16.19
2023-05-19T21:44:43.984Z,16.31
2023-05-19T21:47:12.426Z,16.53
2023-05-19T21:49:41.539Z,16.53
2023-05-19T21:52:10.142Z,16.47
2023-05-19T21:54:39.086Z,16.45
2023-05-19T21:57:07.450Z,16.42
2023-05-19T21:59:35.720Z,16.51
2023-05-19T22:02:04.072Z,16.65
2023-05-19T22:04:32.449Z,16.63
2023-05-19T22:07:02.028Z,16.63
2023-05-19T22:09:30.486Z,16.54
2023-05-19T22:11:58.717Z,16.57
2023-05-19T22:14:27.837Z,16.58
2023-05-19T22:16:56.134Z,16.65
2023-05-19T22:19:24.419Z,16.63
2023-05-19T22:22:02.022Z,16.72
2023-05-19T22:24:38.549Z,16.59
2023-05-19T22:27:08.428Z,16.61
2023-05-19T22:29:40.264Z,16.57
2023-05-19T22:32:12.262Z,16.45
2023-05-19T22:34:40.686Z,16.42
2023-05-19T22:37:08.877Z,16.53
2023-05-19T22:39:39.300Z,16.34
2023-05-19T22:42:08.292Z,16.36
2023-05-19T22:44:36.577Z,16.41
2023-05-19T22:47:05.744Z,16.30
2023-05-19T22:49:33.973Z,16.28
2023-05-19T22:52:03.023Z,16.11
2023-05-19T22:54:32.094Z,16.17
2023-05-19T22:57:00.325Z,16.13
2023-05-19T22:59:28.558Z,15.98
2023-05-19T23:01:56.742Z,15.85
2023-05-19T23:04:25.969Z,15.64
2023-05-19T23:06:54.255Z,15.65
2023-05-19T23:09:23.264Z,15.74
2023-05-19T23:11:51.690Z,15.78
2023-05-19T23:14:22.080Z,15.76
2023-05-19T23:16:50.446Z,15.76
2023-05-19T23:19:20.604Z,15.85
2023-05-19T23:21:49.793Z,15.83
2023-05-19T23:24:17.986Z,15.86
2023-05-19T23:26:46.230Z,15.72
2023-05-19T23:29:15.162Z,15.69
2023-05-19T23:31:44.662Z,15.57
2023-05-19T23:34:13.005Z,15.65
2023-05-19T23:36:41.291Z,15.68
2023-05-19T23:39:09.535Z,15.58
2023-05-19T23:41:37.836Z,15.58
2023-05-19T23:44:06.835Z,15.57
2023-05-19T23:46:35.216Z,15.61
2023-05-19T23:49:03.487Z,15.61
2023-05-19T23:51:31.878Z,15.46
2023-05-19T23:54:01.058Z,15.25
2023-05-19T23:56:29.280Z,15.36
2023-05-19T23:58:57.480Z,15.36
